sensor_id;sensor_type;location;lat;lon;timestamp;P1;durP1;ratioP1;P2;durP2;ratioP2
11767;SDS011;5941;57.652;12.514;2023-02-28T00:01:41;3.60;;;2.30;;
11767;SDS011;5941;57.652;12.514;2023-02-28T00:04:07;3.23;;;2.13;;
11767;SDS011;5941;57.652;12.514;2023-02-28T00:06:34;2.37;;;1.83;;
11767;SDS011;5941;57.652;12.514;2023-02-28T00:09:00;3.00;;;1.87;;
11767;SDS011;5941;57.652;12.514;2023-02-28T00:11:26;2.43;;;2.07;;
11767;SDS011;5941;57.652;12.514;2023-02-28T00:13:52;3.27;;;1.93;;
11767;SDS011;5941;57.652;12.514;2023-02-28T00:16:18;4.13;;;2.00;;
11767;SDS011;5941;57.652;12.514;2023-02-28T00:18:45;3.93;;;2.07;;
11767;SDS011;5941;57.652;12.514;2023-02-28T00:21:12;2.87;;;1.90;;
11767;SDS011;5941;57.652;12.514;2023-02-28T00:23:38;3.37;;;2.07;;
11767;SDS011;5941;57.652;12.514;2023-02-28T00:26:04;4.30;;;2.73;;
11767;SDS011;5941;57.652;12.514;2023-02-28T00:28:30;3.80;;;2.33;;
11767;SDS011;5941;57.652;12.514;2023-02-28T00:30:56;3.30;;;2.07;;
11767;SDS011;5941;57.652;12.514;2023-02-28T00:33:22;5.80;;;2.57;;
11767;SDS011;5941;57.652;12.514;2023-02-28T00:35:49;3.17;;;2.30;;
11767;SDS011;5941;57.652;12.514;2023-02-28T00:38:15;3.17;;;1.90;;
11767;SDS011;5941;57.652;12.514;2023-02-28T00:40:41;2.90;;;2.00;;
11767;SDS011;5941;57.652;12.514;2023-02-28T00:43:07;2.70;;;1.90;;
11767;SDS011;5941;57.652;12.514;2023-02-28T00:45:33;2.10;;;1.90;;
11767;SDS011;5941;57.652;12.514;2023-02-28T00:47:59;2.37;;;1.90;;
11767;SDS011;5941;57.652;12.514;2023-02-28T00:50:25;3.00;;;1.90;;
11767;SDS011;5941;57.652;12.514;2023-02-28T00:52:51;3.97;;;2.30;;
11767;SDS011;5941;57.652;12.514;2023-02-28T00:55:16;3.27;;;1.90;;
11767;SDS011;5941;57.652;12.514;2023-02-28T00:57:43;3.33;;;2.00;;
11767;SDS011;5941;57.652;12.514;2023-02-28T01:00:09;2.23;;;2.00;;
11767;SDS011;5941;57.652;12.514;2023-02-28T01:02:35;2.80;;;2.13;;
11767;SDS011;5941;57.652;12.514;2023-02-28T01:05:01;2.63;;;1.70;;
11767;SDS011;5941;57.652;12.514;2023-02-28T01:07:28;3.43;;;2.17;;
11767;SDS011;5941;57.652;12.514;2023-02-28T01:09:54;3.10;;;2.30;;
11767;SDS011;5941;57.652;12.514;2023-02-28T01:12:20;3.53;;;1.87;;
11767;SDS011;5941;57.652;12.514;2023-02-28T01:14:46;2.93;;;2.30;;
11767;SDS011;5941;57.652;12.514;2023-02-28T01:17:12;2.87;;;1.90;;
11767;SDS011;5941;57.652;12.514;2023-02-28T01:19:38;2.20;;;1.80;;
11767;SDS011;5941;57.652;12.514;2023-02-28T01:22:04;2.33;;;2.07;;
11767;SDS011;5941;57.652;12.514;2023-02-28T01:24:30;2.43;;;1.70;;
11767;SDS011;5941;57.652;12.514;2023-02-28T01:26:57;2.20;;;1.80;;
11767;SDS011;5941;57.652;12.514;2023-02-28T01:29:22;2.27;;;1.77;;
11767;SDS011;5941;57.652;12.514;2023-02-28T01:31:48;2.53;;;1.67;;
11767;SDS011;5941;57.652;12.514;2023-02-28T01:34:15;5.27;;;1.63;;
11767;SDS011;5941;57.652;12.514;2023-02-28T01:36:41;3.00;;;1.63;;
11767;SDS011;5941;57.652;12.514;2023-02-28T01:39:07;2.27;;;1.90;;
11767;SDS011;5941;57.652;12.514;2023-02-28T01:41:33;2.33;;;1.80;;
11767;SDS011;5941;57.652;12.514;2023-02-28T01:44:01;3.47;;;1.80;;
11767;SDS011;5941;57.652;12.514;2023-02-28T01:46:28;2.40;;;1.63;;
11767;SDS011;5941;57.652;12.514;2023-02-28T01:48:57;3.67;;;1.80;;
11767;SDS011;5941;57.652;12.514;2023-02-28T01:54:01;2.10;;;1.50;;
11767;SDS011;5941;57.652;12.514;2023-02-28T01:56:30;3.53;;;1.70;;
11767;SDS011;5941;57.652;12.514;2023-02-28T01:58:58;2.93;;;1.80;;
11767;SDS011;5941;57.652;12.514;2023-02-28T02:01:25;2.80;;;2.00;;
11767;SDS011;5941;57.652;12.514;2023-02-28T02:03:53;3.03;;;2.20;;
11767;SDS011;5941;57.652;12.514;2023-02-28T02:06:20;2.80;;;2.30;;
11767;SDS011;5941;57.652;12.514;2023-02-28T02:08:46;4.70;;;2.10;;
11767;SDS011;5941;57.652;12.514;2023-02-28T02:11:12;2.47;;;1.93;;
11767;SDS011;5941;57.652;12.514;2023-02-28T02:24:20;3.50;;;1.70;;
11767;SDS011;5941;57.652;12.514;2023-02-28T02:31:55;2.53;;;1.70;;
11767;SDS011;5941;57.652;12.514;2023-02-28T02:37:15;2.67;;;1.90;;
11767;SDS011;5941;57.652;12.514;2023-02-28T02:39:52;1.83;;;1.60;;
11767;SDS011;5941;57.652;12.514;2023-02-28T02:42:29;2.80;;;1.90;;
11767;SDS011;5941;57.652;12.514;2023-02-28T02:45:01;2.63;;;1.80;;
11767;SDS011;5941;57.652;12.514;2023-02-28T02:47:29;2.80;;;2.00;;
11767;SDS011;5941;57.652;12.514;2023-02-28T02:49:57;2.87;;;1.80;;
11767;SDS011;5941;57.652;12.514;2023-02-28T02:52:25;3.87;;;1.70;;
11767;SDS011;5941;57.652;12.514;2023-02-28T02:54:54;3.60;;;2.00;;
11767;SDS011;5941;57.652;12.514;2023-02-28T02:57:24;4.33;;;1.90;;
11767;SDS011;5941;57.652;12.514;2023-02-28T02:59:52;3.20;;;1.80;;
11767;SDS011;5941;57.652;12.514;2023-02-28T03:02:19;2.00;;;1.50;;
11767;SDS011;5941;57.652;12.514;2023-02-28T03:04:48;2.63;;;1.90;;
11767;SDS011;5941;57.652;12.514;2023-02-28T03:07:17;1.90;;;1.70;;
11767;SDS011;5941;57.652;12.514;2023-02-28T03:09:50;1.90;;;1.60;;
11767;SDS011;5941;57.652;12.514;2023-02-28T03:12:16;1.70;;;1.53;;
11767;SDS011;5941;57.652;12.514;2023-02-28T03:17:20;2.03;;;1.70;;
11767;SDS011;5941;57.652;12.514;2023-02-28T03:22:40;1.40;;;1.30;;
11767;SDS011;5941;57.652;12.514;2023-02-28T03:25:15;2.57;;;1.60;;
11767;SDS011;5941;57.652;12.514;2023-02-28T03:30:31;2.97;;;1.60;;
11767;SDS011;5941;57.652;12.514;2023-02-28T03:33:06;1.87;;;1.50;;
11767;SDS011;5941;57.652;12.514;2023-02-28T03:35:34;1.70;;;1.50;;
11767;SDS011;5941;57.652;12.514;2023-02-28T03:38:35;2.10;;;1.50;;
11767;SDS011;5941;57.652;12.514;2023-02-28T03:41:16;1.93;;;1.60;;
11767;SDS011;5941;57.652;12.514;2023-02-28T03:43:41;1.80;;;1.40;;
11767;SDS011;5941;57.652;12.514;2023-02-28T03:46:09;2.07;;;1.60;;
11767;SDS011;5941;57.652;12.514;2023-02-28T03:48:40;2.43;;;1.70;;
11767;SDS011;5941;57.652;12.514;2023-02-28T03:51:08;3.27;;;1.77;;
11767;SDS011;5941;57.652;12.514;2023-02-28T03:53:40;2.53;;;1.60;;
11767;SDS011;5941;57.652;12.514;2023-02-28T03:59:34;2.10;;;1.80;;
11767;SDS011;5941;57.652;12.514;2023-02-28T04:01:34;2.03;;;1.50;;
11767;SDS011;5941;57.652;12.514;2023-02-28T04:04:01;1.97;;;1.57;;
11767;SDS011;5941;57.652;12.514;2023-02-28T04:06:27;2.00;;;1.80;;
11767;SDS011;5941;57.652;12.514;2023-02-28T04:08:56;2.27;;;1.60;;
11767;SDS011;5941;57.652;12.514;2023-02-28T04:11:23;3.57;;;1.90;;
11767;SDS011;5941;57.652;12.514;2023-02-28T04:13:49;2.07;;;1.50;;
11767;SDS011;5941;57.652;12.514;2023-02-28T04:16:15;2.23;;;1.40;;
11767;SDS011;5941;57.652;12.514;2023-02-28T04:18:42;2.73;;;1.43;;
11767;SDS011;5941;57.652;12.514;2023-02-28T04:21:08;1.50;;;1.30;;
11767;SDS011;5941;57.652;12.514;2023-02-28T04:23:34;1.87;;;1.27;;
11767;SDS011;5941;57.652;12.514;2023-02-28T04:26:00;1.97;;;1.57;;
11767;SDS011;5941;57.652;12.514;2023-02-28T04:28:26;1.53;;;1.20;;
11767;SDS011;5941;57.652;12.514;2023-02-28T04:31:01;1.73;;;1.40;;
11767;SDS011;5941;57.652;12.514;2023-02-28T04:33:27;1.93;;;1.50;;
11767;SDS011;5941;57.652;12.514;2023-02-28T04:38:26;1.73;;;1.57;;
11767;SDS011;5941;57.652;12.514;2023-02-28T04:40:52;2.23;;;1.20;;
11767;SDS011;5941;57.652;12.514;2023-02-28T04:43:18;2.40;;;1.70;;
11767;SDS011;5941;57.652;12.514;2023-02-28T04:45:44;2.43;;;1.60;;
11767;SDS011;5941;57.652;12.514;2023-02-28T04:48:10;3.20;;;1.70;;
11767;SDS011;5941;57.652;12.514;2023-02-28T04:50:35;2.03;;;1.50;;
11767;SDS011;5941;57.652;12.514;2023-02-28T04:53:01;1.50;;;1.40;;
11767;SDS011;5941;57.652;12.514;2023-02-28T04:55:27;2.10;;;1.50;;
11767;SDS011;5941;57.652;12.514;2023-02-28T04:57:53;2.37;;;1.47;;
11767;SDS011;5941;57.652;12.514;2023-02-28T05:00:19;2.00;;;1.43;;
11767;SDS011;5941;57.652;12.514;2023-02-28T05:02:45;1.90;;;1.60;;
11767;SDS011;5941;57.652;12.514;2023-02-28T05:05:11;1.70;;;1.40;;
11767;SDS011;5941;57.652;12.514;2023-02-28T05:07:42;2.67;;;1.27;;
11767;SDS011;5941;57.652;12.514;2023-02-28T05:10:09;1.43;;;1.20;;
11767;SDS011;5941;57.652;12.514;2023-02-28T05:12:35;1.90;;;1.40;;
11767;SDS011;5941;57.652;12.514;2023-02-28T05:15:01;1.93;;;1.30;;
11767;SDS011;5941;57.652;12.514;2023-02-28T05:17:27;2.00;;;1.20;;
11767;SDS011;5941;57.652;12.514;2023-02-28T05:19:53;1.20;;;1.10;;
11767;SDS011;5941;57.652;12.514;2023-02-28T05:22:19;1.57;;;1.20;;
11767;SDS011;5941;57.652;12.514;2023-02-28T05:24:45;1.53;;;1.37;;
11767;SDS011;5941;57.652;12.514;2023-02-28T05:27:11;1.43;;;1.20;;
11767;SDS011;5941;57.652;12.514;2023-02-28T05:29:37;1.90;;;1.20;;
11767;SDS011;5941;57.652;12.514;2023-02-28T05:32:10;2.27;;;1.60;;
11767;SDS011;5941;57.652;12.514;2023-02-28T05:34:37;1.47;;;1.37;;
11767;SDS011;5941;57.652;12.514;2023-02-28T05:37:03;1.93;;;1.40;;
11767;SDS011;5941;57.652;12.514;2023-02-28T05:39:29;1.83;;;1.50;;
11767;SDS011;5941;57.652;12.514;2023-02-28T05:41:55;1.60;;;1.33;;
11767;SDS011;5941;57.652;12.514;2023-02-28T05:44:21;2.20;;;1.30;;
11767;SDS011;5941;57.652;12.514;2023-02-28T05:46:47;1.50;;;1.40;;
11767;SDS011;5941;57.652;12.514;2023-02-28T05:49:13;2.07;;;1.33;;
11767;SDS011;5941;57.652;12.514;2023-02-28T05:51:39;1.97;;;1.40;;
11767;SDS011;5941;57.652;12.514;2023-02-28T05:54:06;1.50;;;1.20;;
11767;SDS011;5941;57.652;12.514;2023-02-28T05:56:32;2.20;;;1.30;;
11767;SDS011;5941;57.652;12.514;2023-02-28T05:59:00;1.93;;;1.30;;
11767;SDS011;5941;57.652;12.514;2023-02-28T06:01:42;2.23;;;1.40;;
11767;SDS011;5941;57.652;12.514;2023-02-28T06:04:13;1.73;;;1.40;;
11767;SDS011;5941;57.652;12.514;2023-02-28T06:06:42;3.53;;;1.40;;
11767;SDS011;5941;57.652;12.514;2023-02-28T06:09:08;2.60;;;1.40;;
11767;SDS011;5941;57.652;12.514;2023-02-28T06:11:34;1.43;;;1.23;;
11767;SDS011;5941;57.652;12.514;2023-02-28T06:14:01;2.43;;;1.30;;
11767;SDS011;5941;57.652;12.514;2023-02-28T06:16:27;1.43;;;1.27;;
11767;SDS011;5941;57.652;12.514;2023-02-28T06:18:54;1.33;;;1.20;;
11767;SDS011;5941;57.652;12.514;2023-02-28T06:21:21;1.47;;;1.37;;
11767;SDS011;5941;57.652;12.514;2023-02-28T06:23:46;1.30;;;1.20;;
11767;SDS011;5941;57.652;12.514;2023-02-28T06:26:12;1.80;;;1.07;;
11767;SDS011;5941;57.652;12.514;2023-02-28T06:28:38;2.00;;;1.30;;
11767;SDS011;5941;57.652;12.514;2023-02-28T06:31:05;2.27;;;1.47;;
11767;SDS011;5941;57.652;12.514;2023-02-28T06:33:31;2.10;;;1.53;;
11767;SDS011;5941;57.652;12.514;2023-02-28T06:35:57;2.10;;;1.17;;
11767;SDS011;5941;57.652;12.514;2023-02-28T06:38:23;1.37;;;1.27;;
11767;SDS011;5941;57.652;12.514;2023-02-28T06:40:53;1.83;;;1.30;;
11767;SDS011;5941;57.652;12.514;2023-02-28T06:43:19;1.67;;;1.57;;
11767;SDS011;5941;57.652;12.514;2023-02-28T06:45:45;1.90;;;1.20;;
11767;SDS011;5941;57.652;12.514;2023-02-28T06:48:11;1.83;;;1.30;;
11767;SDS011;5941;57.652;12.514;2023-02-28T06:50:37;3.03;;;1.40;;
11767;SDS011;5941;57.652;12.514;2023-02-28T06:53:03;1.53;;;1.30;;
11767;SDS011;5941;57.652;12.514;2023-02-28T06:55:29;1.30;;;1.20;;
11767;SDS011;5941;57.652;12.514;2023-02-28T06:57:56;1.50;;;1.30;;
11767;SDS011;5941;57.652;12.514;2023-02-28T07:00:22;3.10;;;1.43;;
11767;SDS011;5941;57.652;12.514;2023-02-28T07:02:48;2.23;;;1.40;;
11767;SDS011;5941;57.652;12.514;2023-02-28T07:05:14;2.67;;;1.00;;
11767;SDS011;5941;57.652;12.514;2023-02-28T07:07:40;2.70;;;1.20;;
11767;SDS011;5941;57.652;12.514;2023-02-28T07:10:09;1.70;;;1.60;;
11767;SDS011;5941;57.652;12.514;2023-02-28T07:12:36;1.53;;;1.30;;
11767;SDS011;5941;57.652;12.514;2023-02-28T07:15:02;2.00;;;1.40;;
11767;SDS011;5941;57.652;12.514;2023-02-28T07:17:28;1.83;;;1.33;;
11767;SDS011;5941;57.652;12.514;2023-02-28T07:19:54;2.60;;;1.40;;
11767;SDS011;5941;57.652;12.514;2023-02-28T07:22:21;2.10;;;1.27;;
11767;SDS011;5941;57.652;12.514;2023-02-28T07:24:47;1.43;;;1.33;;
11767;SDS011;5941;57.652;12.514;2023-02-28T07:27:13;1.83;;;1.43;;
11767;SDS011;5941;57.652;12.514;2023-02-28T07:29:48;3.40;;;1.70;;
11767;SDS011;5941;57.652;12.514;2023-02-28T07:32:14;2.43;;;1.80;;
11767;SDS011;5941;57.652;12.514;2023-02-28T07:34:40;2.77;;;1.43;;
11767;SDS011;5941;57.652;12.514;2023-02-28T07:37:06;1.60;;;1.30;;
11767;SDS011;5941;57.652;12.514;2023-02-28T07:39:32;2.33;;;1.40;;
11767;SDS011;5941;57.652;12.514;2023-02-28T07:41:58;1.70;;;1.40;;
11767;SDS011;5941;57.652;12.514;2023-02-28T07:44:24;2.90;;;1.57;;
11767;SDS011;5941;57.652;12.514;2023-02-28T07:46:50;1.83;;;1.40;;
11767;SDS011;5941;57.652;12.514;2023-02-28T07:49:17;1.40;;;1.30;;
11767;SDS011;5941;57.652;12.514;2023-02-28T07:51:43;1.93;;;1.20;;
11767;SDS011;5941;57.652;12.514;2023-02-28T07:54:09;1.97;;;1.30;;
11767;SDS011;5941;57.652;12.514;2023-02-28T07:56:35;1.87;;;1.30;;
11767;SDS011;5941;57.652;12.514;2023-02-28T07:59:01;2.23;;;1.50;;
11767;SDS011;5941;57.652;12.514;2023-02-28T08:01:28;3.77;;;2.17;;
11767;SDS011;5941;57.652;12.514;2023-02-28T08:03:54;3.03;;;1.80;;
11767;SDS011;5941;57.652;12.514;2023-02-28T08:06:23;2.70;;;1.87;;
11767;SDS011;5941;57.652;12.514;2023-02-28T08:08:49;2.00;;;1.50;;
11767;SDS011;5941;57.652;12.514;2023-02-28T08:11:16;4.77;;;2.20;;
11767;SDS011;5941;57.652;12.514;2023-02-28T08:13:42;4.47;;;1.90;;
11767;SDS011;5941;57.652;12.514;2023-02-28T08:16:09;4.83;;;2.50;;
11767;SDS011;5941;57.652;12.514;2023-02-28T08:18:35;3.37;;;2.30;;
11767;SDS011;5941;57.652;12.514;2023-02-28T08:21:10;2.80;;;2.33;;
11767;SDS011;5941;57.652;12.514;2023-02-28T08:23:36;4.93;;;2.83;;
11767;SDS011;5941;57.652;12.514;2023-02-28T08:26:02;4.47;;;3.27;;
11767;SDS011;5941;57.652;12.514;2023-02-28T08:28:29;3.77;;;2.33;;
11767;SDS011;5941;57.652;12.514;2023-02-28T08:30:55;2.87;;;1.97;;
11767;SDS011;5941;57.652;12.514;2023-02-28T08:33:21;2.67;;;1.93;;
11767;SDS011;5941;57.652;12.514;2023-02-28T08:35:47;3.13;;;1.90;;
11767;SDS011;5941;57.652;12.514;2023-02-28T08:38:13;2.40;;;1.83;;
11767;SDS011;5941;57.652;12.514;2023-02-28T08:40:39;2.10;;;1.60;;
11767;SDS011;5941;57.652;12.514;2023-02-28T08:43:05;4.10;;;1.93;;
11767;SDS011;5941;57.652;12.514;2023-02-28T08:45:31;1.90;;;1.60;;
11767;SDS011;5941;57.652;12.514;2023-02-28T08:47:57;2.20;;;1.30;;
11767;SDS011;5941;57.652;12.514;2023-02-28T08:50:23;2.87;;;1.67;;
11767;SDS011;5941;57.652;12.514;2023-02-28T08:52:49;2.17;;;1.70;;
11767;SDS011;5941;57.652;12.514;2023-02-28T08:55:15;2.70;;;1.60;;
11767;SDS011;5941;57.652;12.514;2023-02-28T08:57:41;1.53;;;1.37;;
11767;SDS011;5941;57.652;12.514;2023-02-28T09:00:07;3.40;;;2.63;;
11767;SDS011;5941;57.652;12.514;2023-02-28T09:02:33;4.13;;;2.47;;
11767;SDS011;5941;57.652;12.514;2023-02-28T09:04:59;3.57;;;2.63;;
11767;SDS011;5941;57.652;12.514;2023-02-28T09:07:25;2.37;;;1.73;;
11767;SDS011;5941;57.652;12.514;2023-02-28T09:09:51;3.13;;;2.30;;
11767;SDS011;5941;57.652;12.514;2023-02-28T09:12:21;2.43;;;1.97;;
11767;SDS011;5941;57.652;12.514;2023-02-28T09:14:47;3.70;;;2.37;;
11767;SDS011;5941;57.652;12.514;2023-02-28T09:17:13;4.07;;;1.80;;
11767;SDS011;5941;57.652;12.514;2023-02-28T09:19:39;2.40;;;1.93;;
11767;SDS011;5941;57.652;12.514;2023-02-28T09:22:05;3.17;;;1.60;;
11767;SDS011;5941;57.652;12.514;2023-02-28T09:24:31;3.93;;;1.90;;
11767;SDS011;5941;57.652;12.514;2023-02-28T09:26:57;2.40;;;1.60;;
11767;SDS011;5941;57.652;12.514;2023-02-28T09:29:23;2.20;;;1.57;;
11767;SDS011;5941;57.652;12.514;2023-02-28T09:31:49;2.60;;;1.50;;
11767;SDS011;5941;57.652;12.514;2023-02-28T09:34:15;1.43;;;1.33;;
11767;SDS011;5941;57.652;12.514;2023-02-28T09:36:42;1.70;;;1.60;;
11767;SDS011;5941;57.652;12.514;2023-02-28T09:39:08;2.90;;;1.60;;
11767;SDS011;5941;57.652;12.514;2023-02-28T09:41:38;2.90;;;1.60;;
11767;SDS011;5941;57.652;12.514;2023-02-28T09:44:12;2.37;;;1.73;;
11767;SDS011;5941;57.652;12.514;2023-02-28T09:46:42;1.70;;;1.60;;
11767;SDS011;5941;57.652;12.514;2023-02-28T09:49:14;3.57;;;1.70;;
11767;SDS011;5941;57.652;12.514;2023-02-28T09:54:11;2.27;;;1.57;;
11767;SDS011;5941;57.652;12.514;2023-02-28T09:56:43;1.57;;;1.37;;
11767;SDS011;5941;57.652;12.514;2023-02-28T09:59:14;1.50;;;1.40;;
11767;SDS011;5941;57.652;12.514;2023-02-28T10:06:48;2.50;;;1.40;;
11767;SDS011;5941;57.652;12.514;2023-02-28T10:11:45;2.27;;;1.50;;
11767;SDS011;5941;57.652;12.514;2023-02-28T10:16:55;2.83;;;1.33;;
11767;SDS011;5941;57.652;12.514;2023-02-28T10:24:35;2.80;;;1.47;;
11767;SDS011;5941;57.652;12.514;2023-02-28T10:27:05;2.40;;;1.30;;
11767;SDS011;5941;57.652;12.514;2023-02-28T10:29:35;2.10;;;1.50;;
11767;SDS011;5941;57.652;12.514;2023-02-28T10:32:01;1.83;;;1.60;;
11767;SDS011;5941;57.652;12.514;2023-02-28T10:34:28;2.77;;;1.70;;
11767;SDS011;5941;57.652;12.514;2023-02-28T10:36:53;1.83;;;1.40;;
11767;SDS011;5941;57.652;12.514;2023-02-28T10:42:05;1.67;;;1.37;;
11767;SDS011;5941;57.652;12.514;2023-02-28T10:44:31;2.47;;;1.50;;
11767;SDS011;5941;57.652;12.514;2023-02-28T10:46:57;2.27;;;1.60;;
11767;SDS011;5941;57.652;12.514;2023-02-28T10:49:24;2.33;;;1.33;;
11767;SDS011;5941;57.652;12.514;2023-02-28T10:51:52;3.60;;;1.50;;
11767;SDS011;5941;57.652;12.514;2023-02-28T10:54:22;3.03;;;1.67;;
11767;SDS011;5941;57.652;12.514;2023-02-28T10:57:05;1.50;;;1.20;;
11767;SDS011;5941;57.652;12.514;2023-02-28T10:59:32;1.47;;;1.10;;
11767;SDS011;5941;57.652;12.514;2023-02-28T11:01:58;2.27;;;1.10;;
11767;SDS011;5941;57.652;12.514;2023-02-28T11:07:22;2.77;;;1.30;;
11767;SDS011;5941;57.652;12.514;2023-02-28T11:09:50;1.20;;;1.10;;
11767;SDS011;5941;57.652;12.514;2023-02-28T11:12:26;2.00;;;1.17;;
11767;SDS011;5941;57.652;12.514;2023-02-28T11:15:02;1.10;;;1.00;;
11767;SDS011;5941;57.652;12.514;2023-02-28T11:17:30;1.23;;;0.90;;
11767;SDS011;5941;57.652;12.514;2023-02-28T11:19:58;1.80;;;1.00;;
11767;SDS011;5941;57.652;12.514;2023-02-28T11:22:27;1.20;;;1.10;;
11767;SDS011;5941;57.652;12.514;2023-02-28T11:24:55;1.43;;;1.03;;
11767;SDS011;5941;57.652;12.514;2023-02-28T11:29:58;2.77;;;1.10;;
11767;SDS011;5941;57.652;12.514;2023-02-28T11:32:25;3.87;;;1.07;;
11767;SDS011;5941;57.652;12.514;2023-02-28T11:37:35;0.97;;;0.83;;
11767;SDS011;5941;57.652;12.514;2023-02-28T11:40:01;1.43;;;0.90;;
11767;SDS011;5941;57.652;12.514;2023-02-28T11:45:03;1.23;;;1.00;;
11767;SDS011;5941;57.652;12.514;2023-02-28T11:55:20;0.97;;;0.83;;
11767;SDS011;5941;57.652;12.514;2023-02-28T12:05:43;1.23;;;0.80;;
11767;SDS011;5941;57.652;12.514;2023-02-28T12:08:22;1.73;;;0.80;;
11767;SDS011;5941;57.652;12.514;2023-02-28T12:16:32;0.70;;;0.70;;
11767;SDS011;5941;57.652;12.514;2023-02-28T12:29:00;0.70;;;0.70;;
11767;SDS011;5941;57.652;12.514;2023-02-28T12:31:29;0.60;;;0.60;;
11767;SDS011;5941;57.652;12.514;2023-02-28T12:33:59;0.60;;;0.60;;
11767;SDS011;5941;57.652;12.514;2023-02-28T12:36:26;0.70;;;0.70;;
11767;SDS011;5941;57.652;12.514;2023-02-28T12:39:11;1.30;;;0.73;;
11767;SDS011;5941;57.652;12.514;2023-02-28T12:46:51;1.27;;;0.60;;
11767;SDS011;5941;57.652;12.514;2023-02-28T12:49:18;1.00;;;0.43;;
11767;SDS011;5941;57.652;12.514;2023-02-28T12:51:45;0.70;;;0.63;;
11767;SDS011;5941;57.652;12.514;2023-02-28T12:54:29;1.07;;;0.60;;
11767;SDS011;5941;57.652;12.514;2023-02-28T12:57:15;0.53;;;0.47;;
11767;SDS011;5941;57.652;12.514;2023-02-28T13:02:19;1.00;;;0.70;;
11767;SDS011;5941;57.652;12.514;2023-02-28T13:09:57;0.60;;;0.40;;
11767;SDS011;5941;57.652;12.514;2023-02-28T13:12:24;0.50;;;0.50;;
11767;SDS011;5941;57.652;12.514;2023-02-28T13:14:51;0.50;;;0.43;;
11767;SDS011;5941;57.652;12.514;2023-02-28T13:17:27;0.30;;;0.30;;
11767;SDS011;5941;57.652;12.514;2023-02-28T13:29:49;0.30;;;0.30;;
11767;SDS011;5941;57.652;12.514;2023-02-28T13:47:28;0.30;;;0.30;;
11767;SDS011;5941;57.652;12.514;2023-02-28T13:50:14;0.43;;;0.33;;
11767;SDS011;5941;57.652;12.514;2023-02-28T13:55:34;0.40;;;0.40;;
11767;SDS011;5941;57.652;12.514;2023-02-28T13:58:17;0.30;;;0.20;;
11767;SDS011;5941;57.652;12.514;2023-02-28T14:03:19;0.47;;;0.37;;
11767;SDS011;5941;57.652;12.514;2023-02-28T14:06:07;0.70;;;0.43;;
11767;SDS011;5941;57.652;12.514;2023-02-28T14:08:33;0.37;;;0.30;;
11767;SDS011;5941;57.652;12.514;2023-02-28T14:11:04;0.63;;;0.30;;
11767;SDS011;5941;57.652;12.514;2023-02-28T14:16:10;2.10;;;0.40;;
11767;SDS011;5941;57.652;12.514;2023-02-28T14:18:37;1.17;;;0.40;;
11767;SDS011;5941;57.652;12.514;2023-02-28T14:21:11;0.40;;;0.40;;
11767;SDS011;5941;57.652;12.514;2023-02-28T14:26:12;0.37;;;0.30;;
11767;SDS011;5941;57.652;12.514;2023-02-28T14:28:45;0.20;;;0.20;;
11767;SDS011;5941;57.652;12.514;2023-02-28T14:31:17;0.30;;;0.30;;
11767;SDS011;5941;57.652;12.514;2023-02-28T14:38:50;1.00;;;0.30;;
11767;SDS011;5941;57.652;12.514;2023-02-28T14:41:32;0.30;;;0.30;;
11767;SDS011;5941;57.652;12.514;2023-02-28T14:44:01;0.20;;;0.20;;
11767;SDS011;5941;57.652;12.514;2023-02-28T14:46:30;1.60;;;0.30;;
11767;SDS011;5941;57.652;12.514;2023-02-28T14:49:00;0.30;;;0.30;;
11767;SDS011;5941;57.652;12.514;2023-02-28T14:51:26;0.20;;;0.20;;
11767;SDS011;5941;57.652;12.514;2023-02-28T14:54:01;0.30;;;0.20;;
11767;SDS011;5941;57.652;12.514;2023-02-28T14:56:37;0.20;;;0.20;;
11767;SDS011;5941;57.652;12.514;2023-02-28T14:59:04;0.40;;;0.40;;
11767;SDS011;5941;57.652;12.514;2023-02-28T15:01:30;1.00;;;0.33;;
11767;SDS011;5941;57.652;12.514;2023-02-28T15:04:00;0.20;;;0.20;;
11767;SDS011;5941;57.652;12.514;2023-02-28T15:06:27;0.40;;;0.30;;
11767;SDS011;5941;57.652;12.514;2023-02-28T15:11:39;0.87;;;0.30;;
11767;SDS011;5941;57.652;12.514;2023-02-28T15:14:05;0.37;;;0.37;;
11767;SDS011;5941;57.652;12.514;2023-02-28T15:16:32;1.07;;;0.50;;
11767;SDS011;5941;57.652;12.514;2023-02-28T15:19:02;0.70;;;0.40;;
11767;SDS011;5941;57.652;12.514;2023-02-28T15:21:35;0.20;;;0.20;;
11767;SDS011;5941;57.652;12.514;2023-02-28T15:24:03;0.23;;;0.23;;
11767;SDS011;5941;57.652;12.514;2023-02-28T15:26:32;0.63;;;0.40;;
11767;SDS011;5941;57.652;12.514;2023-02-28T15:29:21;0.43;;;0.43;;
11767;SDS011;5941;57.652;12.514;2023-02-28T15:31:48;0.50;;;0.50;;
11767;SDS011;5941;57.652;12.514;2023-02-28T15:34:21;0.60;;;0.50;;
11767;SDS011;5941;57.652;12.514;2023-02-28T15:36:48;0.53;;;0.40;;
11767;SDS011;5941;57.652;12.514;2023-02-28T15:39:23;0.53;;;0.43;;
11767;SDS011;5941;57.652;12.514;2023-02-28T15:41:49;0.30;;;0.30;;
11767;SDS011;5941;57.652;12.514;2023-02-28T15:44:29;0.53;;;0.50;;
11767;SDS011;5941;57.652;12.514;2023-02-28T15:47:14;1.20;;;0.63;;
11767;SDS011;5941;57.652;12.514;2023-02-28T15:49:49;0.43;;;0.43;;
11767;SDS011;5941;57.652;12.514;2023-02-28T15:52:16;0.63;;;0.40;;
11767;SDS011;5941;57.652;12.514;2023-02-28T15:54:44;0.47;;;0.47;;
11767;SDS011;5941;57.652;12.514;2023-02-28T15:57:19;0.57;;;0.57;;
11767;SDS011;5941;57.652;12.514;2023-02-28T15:59:50;3.13;;;0.53;;
11767;SDS011;5941;57.652;12.514;2023-02-28T16:02:19;0.40;;;0.40;;
11767;SDS011;5941;57.652;12.514;2023-02-28T16:07:30;1.20;;;0.90;;
11767;SDS011;5941;57.652;12.514;2023-02-28T16:09:56;0.83;;;0.50;;
11767;SDS011;5941;57.652;12.514;2023-02-28T16:12:25;1.67;;;0.70;;
11767;SDS011;5941;57.652;12.514;2023-02-28T16:14:51;0.80;;;0.67;;
11767;SDS011;5941;57.652;12.514;2023-02-28T16:17:25;1.00;;;0.97;;
11767;SDS011;5941;57.652;12.514;2023-02-28T16:19:52;3.10;;;0.97;;
11767;SDS011;5941;57.652;12.514;2023-02-28T16:22:18;0.63;;;0.53;;
11767;SDS011;5941;57.652;12.514;2023-02-28T16:24:44;1.67;;;0.80;;
11767;SDS011;5941;57.652;12.514;2023-02-28T16:27:14;2.13;;;1.30;;
11767;SDS011;5941;57.652;12.514;2023-02-28T16:29:41;2.30;;;1.23;;
11767;SDS011;5941;57.652;12.514;2023-02-28T16:32:07;1.33;;;1.10;;
11767;SDS011;5941;57.652;12.514;2023-02-28T16:34:33;3.23;;;1.10;;
11767;SDS011;5941;57.652;12.514;2023-02-28T16:36:59;1.20;;;1.10;;
11767;SDS011;5941;57.652;12.514;2023-02-28T16:39:25;1.20;;;0.80;;
11767;SDS011;5941;57.652;12.514;2023-02-28T16:41:51;0.93;;;0.67;;
11767;SDS011;5941;57.652;12.514;2023-02-28T16:44:21;1.37;;;0.83;;
11767;SDS011;5941;57.652;12.514;2023-02-28T16:46:49;1.00;;;0.67;;
11767;SDS011;5941;57.652;12.514;2023-02-28T16:49:15;1.90;;;0.70;;
11767;SDS011;5941;57.652;12.514;2023-02-28T16:51:41;0.77;;;0.70;;
11767;SDS011;5941;57.652;12.514;2023-02-28T16:54:07;0.97;;;0.80;;
11767;SDS011;5941;57.652;12.514;2023-02-28T16:56:33;0.70;;;0.60;;
11767;SDS011;5941;57.652;12.514;2023-02-28T16:59:00;0.60;;;0.60;;
11767;SDS011;5941;57.652;12.514;2023-02-28T17:01:26;1.37;;;0.80;;
11767;SDS011;5941;57.652;12.514;2023-02-28T17:03:53;1.13;;;0.50;;
11767;SDS011;5941;57.652;12.514;2023-02-28T17:06:20;0.97;;;0.70;;
11767;SDS011;5941;57.652;12.514;2023-02-28T17:08:48;1.50;;;0.60;;
11767;SDS011;5941;57.652;12.514;2023-02-28T17:11:14;0.80;;;0.80;;
11767;SDS011;5941;57.652;12.514;2023-02-28T17:13:40;1.43;;;1.10;;
11767;SDS011;5941;57.652;12.514;2023-02-28T17:16:08;2.77;;;1.50;;
11767;SDS011;5941;57.652;12.514;2023-02-28T17:18:39;2.27;;;1.20;;
11767;SDS011;5941;57.652;12.514;2023-02-28T17:21:08;1.30;;;1.17;;
11767;SDS011;5941;57.652;12.514;2023-02-28T17:23:35;0.80;;;0.80;;
11767;SDS011;5941;57.652;12.514;2023-02-28T17:26:01;2.37;;;1.40;;
11767;SDS011;5941;57.652;12.514;2023-02-28T17:28:27;1.30;;;1.00;;
11767;SDS011;5941;57.652;12.514;2023-02-28T17:30:53;1.27;;;0.90;;